Airfield :
LOGIN :

Register | Disclaimer

   EN    FR    IT 

 










Legend :    VFR   Marginal VFR   IFR   Intensive IFR   Very Intensive IFR
Visi :
Ceiling :
>= 8 km
>= 3000ft
5 to 8 km
1000 to 3000 ft
1500m to 5 km
500 to 1000 ft
800 to 1500m
200 to 500 ft
< 800m
< 200 ft
Symbols :   Thunderstorms  Fog  Heavy snow  Heavy precipitations  Wind > 20 kt
SIGMETs :     Misc.  Thunderstorms  Icing  Turbulence  Mountain Waves  Volcanic Ashes







- Airport Elevation : 37 ft
- IATA code : HLY


EGOV - RAF Valley

CURRENT METAR :
  • 191650Z AUTO 34005KT 9999 NCD 17/12 Q1029

EXPIRED METARs :
  • 191620Z 31004KT CAVOK 18/12 Q1030 NOSIG RMK BLU BLU
  • 191550Z 31005KT 9999 FEW025 18/12 Q1030 NOSIG RMK BLU BLU
  • 191520Z 31005KT 9999 FEW025 18/12 Q1030 NOSIG RMK BLU BLU
  • 191450Z 31004KT 9999 FEW028 18/12 Q1030 NOSIG RMK BLU BLU

TAF TAF EGOV
Valid from the 19 at 15:00 until the 19 at 19:00 UTC


191325Z 1915/1919 23005KT 9999 FEW030
No reported NOTAMs for that airfield.



MET'MAP, your aeronautical weather chart ! - Copyright ORBIFLY December 2007 - Disclaimer

ORBIFLY MET'MAP TEAM :

Programming & Development : Alexandra Zaïnal
Concept & Development : Baudouin d'Aumeries
Co-Development & Prog : Marc-Olivier Méhu
Technical & hardware support : Manuel Goepfert

Contact : metmap@orbifly.com




SOURCES & CREDITS :

   NOAA